Pansey, Alabama
Current Conditions -  °F | °C
As of 4:53 PM on Wednesday 22 Oct 2014 (Local Time) from KDHN Reporting Station
Clear Clear  
Wind Chill: 23°   Ceiling: Unl
Heat Index: 23°   Visibility: 10mi
Dew Point:   Wind: 7mph
Humidity: 33%   Direction: 20°NNE
Pressure: 30.06"   Gusts: NA
Location:  31.15°N, 85.18°W
Report Text: KDHN 222153Z 02006KT 10SM CLR 23/06 A3006 RMK AO2 SLP175 T02280056
Loading
Personal Weather Stations






























Interactive Weather Map
Tropical Storm Tracking
New forecast layout! Learn more

10-Day Weather Forecast

Advertisements
Track Severe Weather on mobile